Time;durP1;ratioP1;P1;durP2;ratioP2;P2;SDS_P1;SDS_P2;PMS_P1;PMS_P2;Temp;Humidity;BMP_temperature;BMP_pressure;BME280_temperature;BME280_humidity;BME280_pressure;Samples;Min_cycle;Max_cycle;Signal;HPM_P1;HPM_P2
2023/08/08 00:00:18;;;;;;;9.03;2.63;;;;;;;12.60;100.00;101307.34;4866267;29;20049;-94
2023/08/08 00:02:46;;;;;;;7.15;2.65;;;;;;;12.60;100.00;101325.59;4851664;29;20052;-95
2023/08/08 00:05:14;;;;;;;5.50;2.65;;;;;;;12.56;100.00;101310.72;4865922;29;20056;-95
2023/08/08 00:07:42;;;;;;;6.03;2.67;;;;;;;12.59;100.00;101304.84;4866288;29;20044;-95
2023/08/08 00:10:08;;;;;;;4.72;2.00;;;;;;;12.57;100.00;101306.97;4866428;29;20542;-95
2023/08/08 00:12:34;;;;;;;6.23;2.13;;;;;;;12.60;100.00;101307.34;4850905;29;20080;-94
2023/08/08 00:15:07;;;;;;;5.70;2.08;;;;;;;12.60;100.00;101317.41;4866334;29;20443;-94
2023/08/08 00:17:35;;;;;;;4.22;2.20;;;;;;;12.61;100.00;101309.03;4866268;29;20044;-95
2023/08/08 00:20:07;;;;;;;6.03;2.30;;;;;;;12.67;100.00;101312.78;4865726;29;20043;-95
2023/08/08 00:22:32;;;;;;;5.85;2.03;;;;;;;12.72;100.00;101315.66;4866036;29;20470;-95
2023/08/08 00:25:05;;;;;;;3.40;2.20;;;;;;;12.77;100.00;101318.59;4865491;29;20049;-95
2023/08/08 00:27:33;;;;;;;5.35;1.98;;;;;;;12.77;100.00;101307.69;4866349;29;20041;-95
2023/08/08 00:30:08;;;;;;;5.53;1.97;;;;;;;12.84;100.00;101314.97;4865253;29;20061;-96
2023/08/08 00:32:34;;;;;;;5.63;2.35;;;;;;;12.81;100.00;101308.94;4865931;29;20036;-95
2023/08/08 00:34:59;;;;;;;5.47;2.30;;;;;;;12.85;100.00;101311.22;4865958;29;20033;-95
2023/08/08 00:37:27;;;;;;;6.57;2.13;;;;;;;12.84;100.00;101307.63;4865180;29;20165;-95
2023/08/08 00:39:53;;;;;;;4.82;2.42;;;;;;;12.86;100.00;101302.81;4865436;29;20036;-96
2023/08/08 00:42:18;;;;;;;4.53;2.10;;;;;;;12.87;100.00;101296.28;4865132;29;20051;-95
2023/08/08 00:44:47;;;;;;;7.50;2.30;;;;;;;12.90;100.00;101301.34;4865603;29;20119;-95
2023/08/08 00:47:13;;;;;;;6.85;2.47;;;;;;;12.93;100.00;101294.59;4865351;29;20174;-96
2023/08/08 00:49:46;;;;;;;7.72;2.33;;;;;;;12.96;100.00;101300.44;4865427;29;20128;-95
2023/08/08 00:52:22;;;;;;;5.77;2.10;;;;;;;12.96;100.00;101294.16;4865255;29;20043;-95
2023/08/08 00:54:57;;;;;;;7.28;2.50;;;;;;;12.97;100.00;101290.38;4851072;29;20186;-95
2023/08/08 00:57:26;;;;;;;5.57;2.25;;;;;;;12.98;100.00;101289.34;4865466;29;20037;-95
2023/08/08 00:59:56;;;;;;;8.05;2.08;;;;;;;13.01;100.00;101290.75;4865112;29;20033;-95
2023/08/08 01:02:27;;;;;;;6.63;2.60;;;;;;;12.97;100.00;101290.38;4864762;29;20037;-96
2023/08/08 01:04:54;;;;;;;4.20;2.03;;;;;;;12.99;100.00;101294.56;4864085;29;20045;-94
2023/08/08 01:07:47;;;;;;;8.35;2.80;;;;;;;13.02;100.00;101295.16;4865166;29;20368;-95
2023/08/08 01:10:25;;;;;;;5.72;2.10;;;;;;;13.07;100.00;101306.25;4864818;29;20040;-96
2023/08/08 01:13:12;;;;;;;5.20;2.40;;;;;;;13.08;100.00;101305.16;4864689;29;20394;-96
2023/08/08 01:15:41;;;;;;;5.65;2.42;;;;;;;13.10;100.00;101295.72;4865157;29;20081;-96
2023/08/08 01:18:09;;;;;;;7.67;2.57;;;;;;;13.14;100.00;101293.41;4864835;29;20055;-96
2023/08/08 01:20:43;;;;;;;5.82;2.75;;;;;;;13.13;100.00;101291.72;4879894;29;20147;-96
2023/08/08 01:23:33;;;;;;;8.07;2.53;;;;;;;13.19;100.00;101290.00;4864343;29;20097;-96
2023/08/08 01:25:59;;;;;;;7.45;2.10;;;;;;;13.18;100.00;101283.72;4864961;29;20037;-96
2023/08/08 01:28:25;;;;;;;7.80;2.33;;;;;;;13.16;100.00;101283.09;4849827;29;20085;-96
2023/08/08 01:30:54;;;;;;;6.43;2.57;;;;;;;13.14;100.00;101286.06;4865575;29;20041;-96
2023/08/08 01:33:27;;;;;;;8.65;2.47;;;;;;;13.14;100.00;101288.78;4864684;29;20037;-96
2023/08/08 01:35:56;;;;;;;6.60;2.53;;;;;;;13.11;100.00;101289.22;4864814;29;20032;-96
2023/08/08 01:38:40;;;;;;;6.65;2.40;;;;;;;13.14;100.00;101296.13;4864741;29;20032;-96
2023/08/08 01:41:14;;;;;;;3.83;2.10;;;;;;;13.14;100.00;101296.97;4878388;29;20139;-96
2023/08/08 01:43:43;;;;;;;7.70;2.83;;;;;;;13.16;100.00;101278.47;4865075;29;20040;-95
2023/08/08 01:46:14;;;;;;;6.63;2.40;;;;;;;13.20;100.00;101288.94;4863874;29;20064;-96
2023/08/08 01:48:54;;;;;;;;;;;;;;;;;;;;;
2023/08/08 01:51:20;;;;;;;6.35;2.38;;;;;;;13.18;100.00;101282.88;4881362;29;20041;-95
2023/08/08 01:53:49;;;;;;;8.13;2.80;;;;;;;13.13;100.00;101278.09;4864400;29;20124;-95
2023/08/08 01:56:20;;;;;;;6.47;2.20;;;;;;;13.07;100.00;101270.81;4864247;29;20064;-95
2023/08/08 01:58:46;;;;;;;8.43;2.70;;;;;;;13.03;100.00;101269.59;4849760;29;20037;-96
2023/08/08 02:01:14;;;;;;;6.87;2.50;;;;;;;12.97;100.00;101274.03;4864126;29;20091;-96
2023/08/08 02:03:49;;;;;;;;;;;;;;;;;;;;;
2023/08/08 02:06:15;;;;;;;8.07;2.90;;;;;;;12.79;100.00;101258.47;4881219;29;20040;-96
2023/08/08 02:08:44;;;;;;;8.20;3.30;;;;;;;12.71;100.00;101253.25;4864269;29;20470;-96
2023/08/08 02:11:15;;;;;;;8.80;2.45;;;;;;;12.64;100.00;101254.16;4864200;29;20394;-96
2023/08/08 02:13:48;;;;;;;13.68;2.72;;;;;;;12.60;100.00;101254.81;4864797;29;20064;-96
2023/08/08 02:16:15;;;;;;;7.38;2.72;;;;;;;12.56;100.00;101262.59;4864063;29;20533;-96
2023/08/08 02:18:41;;;;;;;7.13;2.33;;;;;;;12.56;100.00;101259.88;4848720;29;20485;-96
2023/08/08 02:21:07;;;;;;;9.70;3.38;;;;;;;12.57;100.00;101266.13;4863862;29;20099;-96
2023/08/08 02:23:38;;;;;;;11.73;3.03;;;;;;;12.52;100.00;101255.91;4848179;29;20053;-96
2023/08/08 02:26:08;;;;;;;8.63;2.50;;;;;;;12.50;100.00;101260.72;4863921;29;20112;-96
2023/08/08 02:28:44;;;;;;;10.52;3.08;;;;;;;12.48;100.00;101264.72;4865049;29;20037;-96
2023/08/08 02:31:21;;;;;;;7.47;2.55;;;;;;;12.51;100.00;101251.50;4834721;29;20481;-96
2023/08/08 02:33:54;;;;;;;8.55;3.50;;;;;;;12.54;100.00;101252.97;4864119;29;20417;-96
2023/08/08 02:36:25;;;;;;;10.82;2.72;;;;;;;12.56;100.00;101248.97;4881147;29;20037;-96
2023/08/08 02:38:53;;;;;;;8.65;3.08;;;;;;;12.59;100.00;101248.53;4863854;29;20339;-96
2023/08/08 02:41:26;;;;;;;9.70;3.00;;;;;;;12.58;100.00;101246.03;4848404;29;20097;-96
2023/08/08 02:43:57;;;;;;;11.07;2.80;;;;;;;12.60;100.00;101247.47;4865060;29;20025;-96
2023/08/08 02:46:33;;;;;;;7.72;3.10;;;;;;;12.58;100.00;101238.69;4864246;29;20039;-96
2023/08/08 02:49:02;;;;;;;10.85;3.60;;;;;;;12.59;100.00;101225.91;4864037;29;20084;-96
2023/08/08 02:51:30;;;;;;;9.52;3.60;;;;;;;12.53;100.00;101232.25;4864897;29;20033;-96
2023/08/08 02:53:55;;;;;;;10.73;3.07;;;;;;;12.49;100.00;101242.75;4867241;29;20029;-96
2023/08/08 02:56:21;;;;;;;10.10;3.75;;;;;;;12.46;100.00;101232.28;4884091;29;20598;-96
2023/08/08 02:58:56;;;;;;;12.67;3.53;;;;;;;12.46;100.00;101230.41;4867075;29;20432;-96
2023/08/08 03:01:25;;;;;;;11.07;3.45;;;;;;;12.45;100.00;101228.72;4867974;29;20039;-96
2023/08/08 03:03:53;;;;;;;10.45;3.33;;;;;;;12.43;100.00;101232.69;4867330;29;20088;-96
2023/08/08 03:06:21;;;;;;;11.48;3.90;;;;;;;12.39;100.00;101235.03;4867768;29;20081;-96
2023/08/08 03:08:47;;;;;;;13.97;4.03;;;;;;;12.39;100.00;101236.94;4852250;29;20033;-96
2023/08/08 03:11:12;;;;;;;11.23;4.20;;;;;;;12.38;100.00;101230.63;4851510;29;20047;-96
2023/08/08 03:13:45;;;;;;;15.13;4.30;;;;;;;12.47;100.00;101236.66;4867232;29;20068;-95
2023/08/08 03:16:16;;;;;;;14.68;3.95;;;;;;;12.48;100.00;101230.19;4851413;29;20049;-96
2023/08/08 03:18:50;;;;;;;9.32;3.60;;;;;;;12.52;100.00;101236.00;4837923;29;20101;-96
2023/08/08 03:21:20;;;;;;;11.55;3.70;;;;;;;12.55;100.00;101241.84;4837422;29;20470;-96
2023/08/08 03:24:01;;;;;;;10.95;3.78;;;;;;;12.57;100.00;101237.03;4866615;29;20079;-96
2023/08/08 03:26:36;;;;;;;11.48;3.85;;;;;;;12.58;100.00;101235.16;4867186;29;20029;-96
2023/08/08 03:29:09;;;;;;;12.60;4.22;;;;;;;12.60;100.00;101213.97;4852297;29;20037;-96
2023/08/08 03:31:35;;;;;;;16.52;4.82;;;;;;;12.61;100.00;101212.94;4867297;29;20085;-96
2023/08/08 03:34:04;;;;;;;12.83;3.30;;;;;;;12.63;100.00;101227.97;4868464;29;20037;-95
2023/08/08 03:36:44;;;;;;;11.00;4.07;;;;;;;12.63;100.00;101217.09;4868545;29;20049;-96
2023/08/08 03:39:10;;;;;;;10.88;3.88;;;;;;;12.66;100.00;101221.25;4868007;29;20037;-96
2023/08/08 03:41:38;;;;;;;15.67;4.87;;;;;;;12.64;100.00;101217.94;4866946;29;20035;-95
2023/08/08 03:44:04;;;;;;;14.02;4.93;;;;;;;12.60;100.00;101220.25;4867852;29;20040;-96
2023/08/08 03:46:35;;;;;;;16.80;4.97;;;;;;;12.55;100.00;101224.69;4881695;29;20033;-96
2023/08/08 03:49:06;;;;;;;13.70;4.68;;;;;;;12.46;100.00;101226.84;4882520;29;20033;-96
2023/08/08 03:51:31;;;;;;;15.20;4.93;;;;;;;12.41;100.00;101229.38;4866722;29;20076;-96
2023/08/08 03:53:59;;;;;;;13.93;4.83;;;;;;;12.36;100.00;101221.06;4867432;29;20454;-96
2023/08/08 03:56:27;;;;;;;14.95;4.60;;;;;;;12.29;100.00;101212.91;4866668;29;20124;-96
2023/08/08 03:58:58;;;;;;;16.60;4.93;;;;;;;12.24;100.00;101221.72;4852184;29;20033;-96
2023/08/08 04:01:26;;;;;;;13.90;4.47;;;;;;;12.19;100.00;101221.53;4866076;29;20173;-95
2023/08/08 04:03:54;;;;;;;15.60;4.85;;;;;;;12.15;100.00;101217.59;4880802;29;20120;-95
2023/08/08 04:06:19;;;;;;;15.30;5.50;;;;;;;12.13;100.00;101216.97;4881558;29;20379;-96
2023/08/08 04:08:45;;;;;;;16.63;4.70;;;;;;;12.10;100.00;101214.69;4866342;29;20036;-95
2023/08/08 04:11:15;;;;;;;16.67;5.20;;;;;;;12.05;100.00;101215.34;4866361;29;20267;-95
2023/08/08 04:17:05;;;;;;;14.73;4.97;;;;;;;11.96;100.00;101213.91;4882617;29;20044;-95
2023/08/08 04:19:31;;;;;;;20.23;4.75;;;;;;;11.92;100.00;101218.06;4851239;29;20048;-95
2023/08/08 04:22:01;;;;;;;15.57;5.63;;;;;;;11.91;100.00;101221.84;4866017;29;20029;-95
2023/08/08 04:24:27;;;;;;;12.00;4.72;;;;;;;11.87;100.00;101220.59;4850811;29;20056;-96
2023/08/08 04:26:52;;;;;;;17.58;5.78;;;;;;;11.85;100.00;101226.25;4865698;29;20029;-95
2023/08/08 04:29:21;;;;;;;17.70;4.90;;;;;;;11.82;100.00;101213.09;4865705;29;20073;-95
2023/08/08 04:31:46;;;;;;;16.45;5.40;;;;;;;11.79;100.00;101216.25;4865616;29;20036;-95
2023/08/08 04:34:17;;;;;;;17.43;5.63;;;;;;;11.81;100.00;101218.75;4865646;29;20040;-95
2023/08/08 04:36:42;;;;;;;15.40;5.68;;;;;;;11.81;100.00;101216.88;4850769;29;20132;-96
2023/08/08 04:39:10;;;;;;;19.77;5.40;;;;;;;11.81;100.00;101213.31;4865779;29;20068;-95
2023/08/08 04:41:51;;;;;;;;;;;;;;;;;;;;;
2023/08/08 04:44:20;;;;;;;18.23;5.03;;;;;;;11.87;100.00;101220.59;4882358;29;20351;-96
2023/08/08 04:46:48;;;;;;;16.33;5.63;;;;;;;11.88;100.00;101222.28;4850772;29;20132;-95
2023/08/08 04:49:16;;;;;;;18.15;5.65;;;;;;;11.90;100.00;101223.72;4864933;29;20037;-95
2023/08/08 04:51:41;;;;;;;17.80;5.13;;;;;;;11.88;100.00;101216.84;4865279;29;20093;-95
2023/08/08 04:54:07;;;;;;;16.05;5.75;;;;;;;11.89;100.00;101223.94;4865709;29;20021;-96
2023/08/08 04:56:37;;;;;;;18.73;5.33;;;;;;;11.85;100.00;101222.69;4865130;29;20040;-95
2023/08/08 04:59:05;;;;;;;18.23;5.25;;;;;;;11.86;100.00;101219.78;4865315;29;20040;-95
2023/08/08 05:01:31;;;;;;;18.15;5.70;;;;;;;11.88;100.00;101223.09;4864838;29;20498;-96
2023/08/08 05:04:07;;;;;;;20.03;5.23;;;;;;;11.90;100.00;101220.19;4864794;29;20029;-96
2023/08/08 05:06:35;;;;;;;12.57;5.07;;;;;;;11.88;100.00;101216.84;4851431;29;20427;-96
2023/08/08 05:09:10;;;;;;;19.05;5.70;;;;;;;11.88;100.00;101223.09;4881556;29;20161;-96
2023/08/08 05:11:36;;;;;;;21.43;5.60;;;;;;;11.90;100.00;101220.19;4851281;29;20029;-95
2023/08/08 05:14:02;;;;;;;17.75;6.20;;;;;;;11.91;100.00;101219.13;4865050;29;20032;-95
2023/08/08 05:16:27;;;;;;;24.87;6.10;;;;;;;11.93;100.00;101222.50;4866100;29;20036;-95
2023/08/08 05:18:53;;;;;;;13.02;5.63;;;;;;;11.97;100.00;101223.72;4864685;29;20025;-96
2023/08/08 05:21:19;;;;;;;16.33;6.23;;;;;;;11.99;100.00;101215.34;4864947;29;20033;-95
2023/08/08 05:23:45;;;;;;;19.10;5.90;;;;;;;12.04;100.00;101210.94;4864528;29;20123;-94
2023/08/08 05:26:11;;;;;;;21.73;6.25;;;;;;;12.09;100.00;101215.72;4864745;29;20492;-95
2023/08/08 05:28:39;;;;;;;17.17;5.40;;;;;;;12.14;100.00;101209.66;4865019;29;20040;-95
2023/08/08 05:31:07;;;;;;;20.98;5.93;;;;;;;12.19;100.00;101216.09;4865039;29;20077;-95
2023/08/08 05:33:33;;;;;;;18.35;6.30;;;;;;;12.23;100.00;101213.78;4864601;29;20057;-95
2023/08/08 05:35:59;;;;;;;16.73;5.57;;;;;;;12.29;100.00;101221.06;4864761;29;20037;-96
2023/08/08 05:38:27;;;;;;;16.95;5.57;;;;;;;12.34;100.00;101225.84;4864804;29;20033;-96
2023/08/08 05:40:53;;;;;;;17.50;5.60;;;;;;;12.40;100.00;101224.97;4849854;29;20076;-96
2023/08/08 05:43:28;;;;;;;25.58;6.32;;;;;;;12.46;100.00;101216.78;4865412;29;20511;-95
2023/08/08 05:46:01;;;;;;;21.08;5.70;;;;;;;12.55;100.00;101227.41;4863865;29;20132;-92
2023/08/08 05:48:28;;;;;;;19.47;5.47;;;;;;;12.64;100.00;101218.75;4863516;29;20036;-87
2023/08/08 05:50:58;;;;;;;22.02;5.50;;;;;;;12.76;100.00;101224.31;4880023;29;20063;-87
2023/08/08 05:53:24;;;;;;;11.38;5.30;;;;;;;12.80;100.00;101224.75;4863160;29;20036;-89
2023/08/08 05:55:49;;;;;;;12.80;5.43;;;;;;;12.87;100.00;101221.94;4863214;29;20039;-88
2023/08/08 05:58:15;;;;;;;16.67;5.53;;;;;;;12.96;100.00;101221.47;4863406;29;20120;-87
2023/08/08 06:00:40;;;;;;;19.43;5.17;;;;;;;13.05;100.00;101226.63;4863273;29;20037;-88
2023/08/08 06:03:06;;;;;;;17.50;5.33;;;;;;;13.14;100.00;101225.31;4863001;29;20028;-87
2023/08/08 06:05:34;;;;;;;18.77;5.13;;;;;;;13.20;100.00;101229.00;4848399;29;20052;-87
2023/08/08 06:07:59;;;;;;;14.48;5.30;;;;;;;13.26;100.00;101226.22;4847789;29;20044;-87
2023/08/08 06:10:25;;;;;;;17.13;5.27;;;;;;;13.31;100.00;101231.00;4863439;29;20466;-87
2023/08/08 06:12:50;;;;;;;15.93;5.30;;;;;;;13.36;100.00;101231.22;4863129;29;20078;-87
2023/08/08 06:15:16;;;;;;;13.65;5.50;;;;;;;13.40;100.00;101226.94;4863057;29;20033;-87
2023/08/08 06:17:49;;;;;;;14.03;5.33;;;;;;;13.46;100.00;101234.25;4848142;29;20041;-88
2023/08/08 06:20:14;;;;;;;15.35;5.82;;;;;;;13.58;100.00;101236.22;4879802;29;20055;-87
2023/08/08 06:22:41;;;;;;;14.93;5.27;;;;;;;13.63;100.00;101236.38;4847818;29;20458;-88
2023/08/08 06:25:07;;;;;;;12.20;4.93;;;;;;;13.64;100.00;101236.16;4862929;29;20132;-87
2023/08/08 06:27:37;;;;;;;12.37;4.83;;;;;;;13.67;100.00;101243.03;4865213;29;20036;-87
2023/08/08 06:30:03;;;;;;;15.32;5.28;;;;;;;13.72;100.00;101245.91;4867068;29;20554;-87
2023/08/08 06:32:31;;;;;;;13.85;5.15;;;;;;;13.78;100.00;101249.63;4866620;29;20029;-87
2023/08/08 06:34:59;;;;;;;22.90;4.68;;;;;;;13.90;100.00;101246.97;4851861;29;20498;-87
2023/08/08 06:37:24;;;;;;;19.67;5.17;;;;;;;13.97;100.00;101237.66;4882205;29;20120;-88
2023/08/08 06:39:53;;;;;;;15.77;4.63;;;;;;;14.08;100.00;101237.94;4883148;29;20129;-88
2023/08/08 06:42:18;;;;;;;14.30;4.90;;;;;;;14.17;100.00;101237.41;4866399;29;20089;-88
2023/08/08 06:44:44;;;;;;;11.87;4.93;;;;;;;14.30;100.00;101241.03;4866935;29;20032;-88
2023/08/08 06:47:13;;;;;;;12.00;4.80;;;;;;;14.39;100.00;101240.47;4866095;29;20043;-87
2023/08/08 06:49:38;;;;;;;10.73;4.23;;;;;;;14.53;100.00;101234.81;4850967;29;20482;-88
2023/08/08 06:52:07;;;;;;;19.23;4.70;;;;;;;14.62;100.00;101241.66;4883176;29;20025;-88
2023/08/08 06:54:35;;;;;;;14.15;4.50;;;;;;;14.69;100.00;101236.91;4883564;29;20044;-88
2023/08/08 06:57:02;;;;;;;13.30;4.80;;;;;;;14.77;100.00;101243.13;4882994;29;20482;-88
2023/08/08 06:59:27;;;;;;;8.13;3.53;;;;;;;14.88;100.00;101232.22;4883264;29;20033;-88
2023/08/08 07:01:53;;;;;;;17.63;5.03;;;;;;;15.03;100.00;101237.22;4866124;29;20032;-88
2023/08/08 07:04:18;;;;;;;10.73;3.90;;;;;;;15.16;100.00;101238.91;4865900;29;20599;-88
2023/08/08 07:06:47;;;;;;;10.13;3.53;;;;;;;15.31;100.00;101245.78;4866602;29;20044;-88
2023/08/08 07:09:14;;;;;;;11.30;4.30;;;;;;;15.41;100.00;101240.56;4865952;29;20025;-87
2023/08/08 07:11:40;;;;;;;12.95;4.53;;;;;;;15.48;100.00;101237.72;4851346;29;20037;-88
2023/08/08 07:14:06;;;;;;;11.88;4.38;;;;;;;15.50;100.00;101239.16;4884894;29;20029;-93
2023/08/08 07:16:34;;;;;;;12.25;3.67;;;;;;;15.59;100.00;101242.34;4868545;29;20112;-94
2023/08/08 07:18:59;;;;;;;11.80;3.90;;;;;;;15.76;100.00;101242.44;4852595;29;20047;-94
2023/08/08 07:21:26;;;;;;;14.23;4.25;;;;;;;15.90;100.00;101237.56;4866837;29;20029;-95
2023/08/08 07:23:54;;;;;;;9.47;4.10;;;;;;;15.98;100.00;101239.94;4867172;29;20363;-95
2023/08/08 07:26:22;;;;;;;15.10;4.15;;;;;;;15.95;100.00;101237.69;4867278;29;20047;-94
2023/08/08 07:28:49;;;;;;;14.52;3.58;;;;;;;15.95;100.00;101238.50;4882304;29;20061;-95
2023/08/08 07:31:17;;;;;;;10.35;4.15;;;;;;;15.96;100.00;101239.34;4867174;29;20047;-94
2023/08/08 07:33:53;;;;;;;12.82;3.80;;;;;;;15.98;100.00;101237.19;4866785;29;20033;-95
2023/08/08 07:36:19;;;;;;;13.20;3.63;;;;;;;16.09;100.00;101230.84;4867106;29;20037;-94
2023/08/08 07:38:44;;;;;;;10.43;3.55;;;;;;;16.25;100.00;101234.69;4866321;29;20132;-95
2023/08/08 07:41:10;;;;;;;8.10;3.60;;;;;;;16.43;100.00;101227.38;4866349;29;20092;-94
2023/08/08 07:43:40;;;;;;;9.07;3.35;;;;;;;16.57;100.00;101223.25;4866204;29;20367;-95
2023/08/08 07:46:06;;;;;;;10.30;3.07;;;;;;;16.72;100.00;101230.09;4866875;29;20040;-95
2023/08/08 07:48:36;;;;;;;8.95;3.50;;;;;;;16.79;100.00;101223.38;4866802;29;20442;-95
2023/08/08 07:51:02;;;;;;;7.50;3.45;;;;;;;16.89;95.83;101230.97;4866394;29;20033;-94
2023/08/08 07:53:28;;;;;;;10.88;3.10;;;;;;;17.03;97.01;101234.22;4882009;29;20089;-95
2023/08/08 07:55:54;;;;;;;8.43;2.77;;;;;;;17.11;93.60;101242.03;4866694;29;20123;-95
2023/08/08 07:58:21;;;;;;;9.33;2.97;;;;;;;17.08;95.60;101233.47;4867078;29;20033;-95
2023/08/08 08:00:47;;;;;;;7.05;2.63;;;;;;;17.24;94.62;101237.28;4851226;29;20470;-95
2023/08/08 08:03:15;;;;;;;8.73;2.90;;;;;;;17.26;93.97;101244.19;4850777;29;20040;-94
2023/08/08 08:05:44;;;;;;;10.67;3.40;;;;;;;17.26;91.38;101257.88;4865855;29;20505;-95
2023/08/08 08:08:12;;;;;;;9.43;3.08;;;;;;;17.27;92.62;101228.53;4866214;29;20487;-95
2023/08/08 08:10:41;;;;;;;7.25;2.78;;;;;;;17.26;93.59;101241.44;4865591;29;20095;-95
2023/08/08 08:13:07;;;;;;;9.40;3.15;;;;;;;17.11;92.32;101243.91;4865924;29;20037;-95
2023/08/08 08:15:35;;;;;;;10.38;2.95;;;;;;;16.98;93.24;101245.09;4866140;29;20447;-95
2023/08/08 08:18:01;;;;;;;7.50;2.80;;;;;;;16.93;93.39;101234.88;4865866;29;20040;-94
2023/08/08 08:20:27;;;;;;;11.13;3.28;;;;;;;16.87;94.11;101235.84;4865670;29;20029;-95
2023/08/08 08:22:59;;;;;;;8.90;3.67;;;;;;;16.97;94.48;101235.22;4865405;29;20025;-94
2023/08/08 08:25:28;;;;;;;9.68;3.08;;;;;;;17.18;92.77;101237.22;4865592;29;20056;-95
2023/08/08 08:27:54;;;;;;;12.52;3.20;;;;;;;17.23;92.41;101241.09;4866103;29;20474;-95
2023/08/08 08:30:19;;;;;;;15.07;4.00;;;;;;;17.42;92.17;101250.72;4865555;29;20033;-95
2023/08/08 08:32:48;;;;;;;12.48;2.70;;;;;;;17.49;88.79;101242.31;4865768;29;20037;-95
2023/08/08 08:35:16;;;;;;;6.25;2.70;;;;;;;17.38;89.30;101249.56;4865247;29;20029;-95
2023/08/08 08:37:42;;;;;;;7.38;2.85;;;;;;;17.34;88.87;101226.47;4865718;29;20033;-94
2023/08/08 08:40:08;;;;;;;6.10;2.77;;;;;;;17.37;88.57;101247.91;4866143;29;20044;-95
2023/08/08 08:42:35;;;;;;;8.00;2.55;;;;;;;17.29;88.87;101231.88;4865501;29;20041;-94
2023/08/08 08:45:06;;;;;;;8.23;2.67;;;;;;;17.29;89.25;101226.41;4865455;29;20092;-95
2023/08/08 08:47:32;;;;;;;7.82;2.50;;;;;;;17.40;90.89;101241.91;4850635;29;20185;-95
2023/08/08 08:50:01;;;;;;;5.28;2.40;;;;;;;17.52;88.21;101241.81;4865097;29;20040;-95
2023/08/08 08:52:26;;;;;;;8.32;2.80;;;;;;;17.43;87.74;101237.84;4881778;29;20041;-94
2023/08/08 08:55:01;;;;;;;6.03;2.20;;;;;;;17.52;88.73;101230.81;4865585;29;20044;-95
2023/08/08 08:57:32;;;;;;;6.95;2.58;;;;;;;17.54;86.44;101245.97;4865557;29;20072;-94
2023/08/08 08:59:58;;;;;;;7.20;2.70;;;;;;;17.53;87.70;101240.72;4867038;29;20093;-94
2023/08/08 09:02:33;;;;;;;7.75;2.20;;;;;;;17.73;87.72;101239.34;4866765;29;20044;-94
2023/08/08 09:05:02;;;;;;;7.82;2.30;;;;;;;17.84;87.91;101243.91;4866209;29;20061;-95
2023/08/08 09:07:32;;;;;;;6.87;2.23;;;;;;;17.78;84.73;101247.66;4865719;29;20418;-94
2023/08/08 09:10:02;;;;;;;11.57;2.63;;;;;;;17.61;83.90;101262.25;4850323;29;20047;-94
2023/08/08 09:12:31;;;;;;;5.55;2.10;;;;;;;17.44;84.23;101242.25;4865056;29;20029;-95
2023/08/08 09:14:58;;;;;;;9.20;2.13;;;;;;;17.38;84.88;101245.97;4870011;29;20036;-93
2023/08/08 09:17:27;;;;;;;7.32;1.90;;;;;;;17.28;85.12;101243.94;4864622;29;20475;-94
2023/08/08 09:19:58;;;;;;;5.37;2.17;;;;;;;17.25;85.65;101241.69;4865149;29;20025;-95
2023/08/08 09:22:24;;;;;;;8.45;2.50;;;;;;;17.23;87.10;101257.53;4880868;29;20128;-94
2023/08/08 09:24:53;;;;;;;5.57;1.92;;;;;;;17.32;83.96;101247.84;4858702;29;20382;-94
2023/08/08 09:27:19;;;;;;;4.78;1.85;;;;;;;17.36;84.42;101244.34;4846228;29;20025;-93
2023/08/08 09:29:47;;;;;;;5.23;2.10;;;;;;;17.49;85.58;101242.31;4846138;29;20081;-95
2023/08/08 09:32:17;;;;;;;5.75;2.15;;;;;;;17.68;85.92;101246.41;4846209;29;20062;-94
2023/08/08 09:34:44;;;;;;;7.82;2.22;;;;;;;17.83;85.69;101253.19;4846505;29;20076;-94
2023/08/08 09:37:19;;;;;;;6.93;2.90;;;;;;;18.00;85.15;101245.78;4846334;29;20033;-94
2023/08/08 09:39:55;;;;;;;10.60;2.65;;;;;;;18.37;85.66;101256.09;4862274;29;20152;-94
2023/08/08 09:42:23;;;;;;;6.13;2.90;;;;;;;18.65;83.06;101248.69;4832186;29;20120;-94
2023/08/08 09:44:51;;;;;;;9.93;3.17;;;;;;;18.73;81.66;101255.63;4830908;29;20090;-94
2023/08/08 09:47:30;;;;;;;;;;;;;;;;;;;;;
2023/08/08 09:50:04;;;;;;;6.50;2.95;;;;;;;18.47;79.59;101246.28;4862559;29;20041;-94
2023/08/08 09:52:30;;;;;;;6.22;3.30;;;;;;;18.63;80.46;101259.13;4845769;29;20057;-94
2023/08/08 09:54:56;;;;;;;8.43;2.40;;;;;;;18.93;79.25;101249.53;4846468;29;20056;-94
2023/08/08 09:57:51;;;;;;;6.78;2.28;;;;;;;19.16;78.27;101248.31;4846212;29;20121;-95
2023/08/08 10:00:19;;;;;;;5.45;2.53;;;;;;;19.16;76.51;101251.06;4845424;29;20457;-94
2023/08/08 10:02:46;;;;;;;7.00;2.50;;;;;;;19.19;75.58;101241.47;4845054;29;20109;-94
2023/08/08 10:05:14;;;;;;;6.10;2.30;;;;;;;19.26;74.81;101256.66;4845902;29;20420;-95
2023/08/08 10:07:40;;;;;;;5.75;2.10;;;;;;;19.08;73.84;101252.38;4846042;29;20086;-94
2023/08/08 10:10:10;;;;;;;7.15;2.10;;;;;;;19.02;74.85;101247.94;4846000;29;20436;-95
2023/08/08 10:12:52;;;;;;;3.72;2.08;;;;;;;18.99;73.74;101245.72;4859276;29;20071;-95
2023/08/08 10:15:18;;;;;;;5.75;1.73;;;;;;;19.06;74.59;101257.34;4845541;29;20034;-94
2023/08/08 10:17:44;;;;;;;4.23;1.80;;;;;;;19.20;71.20;101246.69;4846233;29;20044;-94
2023/08/08 10:20:12;;;;;;;5.40;1.90;;;;;;;19.51;72.07;101243.34;4845348;29;20140;-94
2023/08/08 10:22:50;;;;;;;6.17;1.80;;;;;;;19.98;72.48;101234.25;4846250;29;20290;-95
2023/08/08 10:25:25;;;;;;;5.30;1.75;;;;;;;20.10;68.46;101236.78;4871954;29;20061;-95
2023/08/08 10:28:03;;;;;;;3.83;2.17;;;;;;;19.85;69.15;101254.03;4864934;29;20045;-95
2023/08/08 10:30:29;;;;;;;4.60;1.48;;;;;;;19.64;68.46;101240.13;4864042;29;20048;-95
2023/08/08 10:33:05;;;;;;;4.20;1.70;;;;;;;19.83;67.40;101236.91;4866211;29;20041;-96
2023/08/08 10:35:39;;;;;;;7.90;2.00;;;;;;;19.95;68.47;101252.13;4864635;29;20037;-96
2023/08/08 10:38:09;;;;;;;4.63;1.75;;;;;;;19.66;68.66;101246.16;4864655;29;20033;-93
2023/08/08 10:40:35;;;;;;;5.18;1.60;;;;;;;19.20;70.47;101243.94;4878978;29;20029;-93
2023/08/08 10:43:11;;;;;;;4.47;1.85;;;;;;;18.76;70.83;101253.19;4863383;29;20133;-92
2023/08/08 10:45:36;;;;;;;6.00;2.03;;;;;;;18.44;72.60;101266.03;4864006;29;20037;-92
2023/08/08 10:48:11;;;;;;;3.07;1.67;;;;;;;17.99;74.98;101262.50;4863235;29;20105;-92
2023/08/08 10:50:41;;;;;;;6.88;1.90;;;;;;;17.81;77.58;101261.69;4863560;29;20454;-93
2023/08/08 10:53:10;;;;;;;6.72;2.00;;;;;;;17.60;79.56;101248.75;4863559;29;20076;-93
2023/08/08 10:55:44;;;;;;;7.10;1.70;;;;;;;17.66;80.49;101254.09;4863698;29;20033;-93
2023/08/08 10:58:15;;;;;;;4.13;2.25;;;;;;;18.10;78.56;101260.69;4863454;29;20059;-92
2023/08/08 11:00:44;;;;;;;6.75;2.08;;;;;;;18.48;77.09;101243.28;4863991;29;20072;-93
2023/08/08 11:03:10;;;;;;;9.63;2.03;;;;;;;19.09;76.15;101237.56;4863377;29;20041;-93
2023/08/08 11:05:44;;;;;;;4.73;1.97;;;;;;;19.79;72.20;101234.69;4880128;29;20036;-92
2023/08/08 11:08:15;;;;;;;5.00;1.60;;;;;;;20.21;68.91;101237.63;4834235;29;20297;-93
2023/08/08 11:10:41;;;;;;;3.70;1.60;;;;;;;20.21;67.71;101224.69;4863355;29;20033;-92
2023/08/08 11:13:18;;;;;;;4.03;1.52;;;;;;;20.22;66.80;101226.34;4881417;29;20065;-93
2023/08/08 11:15:45;;;;;;;6.53;1.88;;;;;;;20.36;65.33;101217.53;4867682;29;20033;-94
2023/08/08 11:18:13;;;;;;;6.28;1.90;;;;;;;20.20;64.68;101213.94;4882694;29;20058;-94
2023/08/08 11:20:43;;;;;;;5.23;1.83;;;;;;;20.39;65.30;101228.03;4866845;29;20040;-93
2023/08/08 11:23:12;;;;;;;4.32;1.58;;;;;;;21.13;61.71;101232.25;4851467;29;20073;-93
2023/08/08 11:25:41;;;;;;;3.85;1.80;;;;;;;21.57;58.82;101214.28;4866974;29;20059;-95
2023/08/08 11:28:19;;;;;;;5.63;1.88;;;;;;;22.98;56.41;101224.25;4867376;29;20077;-95
2023/08/08 11:30:51;;;;;;;4.47;1.80;;;;;;;24.74;50.66;101232.97;4871248;29;20037;-96
2023/08/08 11:33:19;;;;;;;5.23;1.60;;;;;;;25.09;47.98;101207.69;4868854;29;20036;-96